createdAt,value
2018-02-27T00:01:32.452Z,-6.90
2018-02-27T00:04:03.076Z,-6.80
2018-02-27T00:06:32.268Z,-6.80
2018-02-27T00:09:02.240Z,-6.80
2018-02-27T00:11:31.451Z,-6.90
2018-02-27T00:14:00.968Z,-7.00
2018-02-27T00:16:30.235Z,-6.90
2018-02-27T00:19:00.234Z,-6.80
2018-02-27T00:21:30.011Z,-6.80
2018-02-27T00:23:59.027Z,-6.80
2018-02-27T00:26:28.691Z,-6.90
2018-02-27T00:28:57.741Z,-7.10
2018-02-27T00:31:27.912Z,-7.40
2018-02-27T00:33:57.664Z,-7.40
2018-02-27T00:36:27.558Z,-7.50
2018-02-27T00:38:57.017Z,-7.50
2018-02-27T00:41:25.891Z,-7.50
2018-02-27T00:43:55.467Z,-7.50
2018-02-27T00:46:25.590Z,-7.50
2018-02-27T00:48:55.878Z,-7.40
2018-02-27T00:51:25.743Z,-7.40
2018-02-27T00:53:55.688Z,-7.40
2018-02-27T00:56:25.218Z,-7.50
2018-02-27T00:58:54.569Z,-7.40
2018-02-27T01:01:24.181Z,-7.50
2018-02-27T01:03:53.983Z,-7.50
2018-02-27T01:06:23.453Z,-7.60
2018-02-27T01:08:53.122Z,-7.50
2018-02-27T01:11:22.340Z,-7.50
2018-02-27T01:13:52.095Z,-7.60
2018-02-27T01:16:21.061Z,-7.70
2018-02-27T01:18:50.607Z,-7.70
2018-02-27T01:21:18.903Z,-7.80
2018-02-27T01:23:47.906Z,-7.90
2018-02-27T01:26:18.547Z,-7.90
2018-02-27T01:28:47.532Z,-7.90
2018-02-27T01:31:16.232Z,-8.00
2018-02-27T01:33:45.070Z,-8.20
2018-02-27T01:36:13.653Z,-8.20
2018-02-27T01:38:43.271Z,-8.20
2018-02-27T01:41:12.375Z,-8.30
2018-02-27T01:43:41.588Z,-8.20
2018-02-27T01:46:11.556Z,-8.30
2018-02-27T01:48:40.697Z,-8.40
2018-02-27T01:51:14.654Z,-8.40
2018-02-27T01:53:44.289Z,-8.50
2018-02-27T01:56:13.451Z,-8.50
2018-02-27T01:58:42.135Z,-8.50
2018-02-27T02:01:11.231Z,-8.60
2018-02-27T02:03:39.779Z,-8.70
2018-02-27T02:06:07.877Z,-8.70
2018-02-27T02:08:36.200Z,-8.70
2018-02-27T02:11:04.444Z,-8.80
2018-02-27T02:13:33.466Z,-8.80
2018-02-27T02:16:02.282Z,-8.80
2018-02-27T02:18:31.038Z,-8.80
2018-02-27T02:20:59.930Z,-8.80
2018-02-27T02:23:28.369Z,-8.90
2018-02-27T02:25:58.346Z,-9.00
2018-02-27T02:28:26.625Z,-9.00
2018-02-27T02:30:54.757Z,-9.00
2018-02-27T02:33:22.696Z,-9.10
2018-02-27T02:35:52.944Z,-9.00
2018-02-27T02:38:21.086Z,-9.10
2018-02-27T02:40:49.159Z,-9.10
2018-02-27T02:43:17.542Z,-9.10
2018-02-27T02:45:45.897Z,-9.10
2018-02-27T02:48:13.901Z,-9.10
2018-02-27T02:50:42.718Z,-9.10
2018-02-27T02:53:10.706Z,-9.10
2018-02-27T02:55:38.965Z,-9.10
2018-02-27T02:58:07.090Z,-9.10
2018-02-27T03:00:35.432Z,-9.10
2018-02-27T03:03:03.821Z,-9.20
2018-02-27T03:05:31.761Z,-9.20
2018-02-27T03:08:00.261Z,-9.30
2018-02-27T03:10:28.284Z,-9.30
2018-02-27T03:12:57.100Z,-9.30
2018-02-27T03:15:25.599Z,-9.40
2018-02-27T03:17:53.882Z,-9.50
2018-02-27T03:20:22.063Z,-9.40
2018-02-27T03:22:49.995Z,-9.40
2018-02-27T03:25:18.221Z,-9.40
2018-02-27T03:27:46.414Z,-9.40
2018-02-27T03:30:14.530Z,-9.40
2018-02-27T03:32:43.163Z,-9.50
2018-02-27T03:35:11.883Z,-9.60
2018-02-27T03:37:40.312Z,-9.70
2018-02-27T03:40:08.577Z,-9.60
2018-02-27T03:42:36.581Z,-9.60
2018-02-27T03:45:05.588Z,-9.60
2018-02-27T03:47:33.635Z,-9.60
2018-02-27T03:50:01.782Z,-9.50
2018-02-27T03:52:29.650Z,-9.50
2018-02-27T03:54:57.892Z,-9.60
2018-02-27T03:57:27.718Z,-9.70
2018-02-27T03:59:55.627Z,-9.70
2018-02-27T04:02:25.012Z,-9.70
2018-02-27T04:04:53.588Z,-9.70
2018-02-27T04:07:22.482Z,-9.90
2018-02-27T04:09:50.754Z,-9.90
2018-02-27T04:12:18.972Z,-9.90
2018-02-27T04:14:47.719Z,-9.90
2018-02-27T04:17:15.717Z,-9.90
2018-02-27T04:19:44.756Z,-10.00
2018-02-27T04:22:12.904Z,-10.00
2018-02-27T04:24:40.906Z,-10.10
2018-02-27T04:27:09.148Z,-10.00
2018-02-27T04:29:37.322Z,-10.00
2018-02-27T04:32:05.777Z,-10.20
2018-02-27T04:34:35.085Z,-10.20
2018-02-27T04:37:02.919Z,-10.20
2018-02-27T04:39:30.859Z,-10.20
2018-02-27T04:41:58.785Z,-10.20
2018-02-27T04:44:26.840Z,-10.40
2018-02-27T04:46:55.254Z,-10.40
2018-02-27T04:49:23.246Z,-10.40
2018-02-27T04:51:51.399Z,-10.40
2018-02-27T04:54:19.626Z,-10.40
2018-02-27T04:56:47.972Z,-10.40
2018-02-27T04:59:16.204Z,-10.40
2018-02-27T05:01:45.035Z,-10.20
2018-02-27T05:04:13.414Z,-10.40
2018-02-27T05:06:41.667Z,-10.40
2018-02-27T05:09:10.040Z,-10.40
2018-02-27T05:11:38.346Z,-10.50
2018-02-27T05:14:06.705Z,-10.50
2018-02-27T05:16:34.825Z,-10.50
2018-02-27T05:19:03.215Z,-10.40
2018-02-27T05:21:32.204Z,-10.60
2018-02-27T05:24:00.249Z,-10.60
2018-02-27T05:26:28.524Z,-10.60
2018-02-27T05:28:56.897Z,-10.50
2018-02-27T05:31:25.440Z,-10.60
2018-02-27T05:33:53.833Z,-10.70
2018-02-27T05:36:22.021Z,-10.70
2018-02-27T05:38:50.681Z,-10.80
2018-02-27T05:41:19.027Z,-10.80
2018-02-27T05:43:47.761Z,-10.80
2018-02-27T05:46:15.869Z,-10.80
2018-02-27T05:48:45.647Z,-10.80
2018-02-27T05:51:14.026Z,-10.90
2018-02-27T05:53:42.618Z,-10.70
2018-02-27T05:56:11.316Z,-10.80
2018-02-27T05:58:39.783Z,-10.90
2018-02-27T06:01:09.398Z,-11.00
2018-02-27T06:03:37.907Z,-10.90
2018-02-27T06:06:06.189Z,-10.90
2018-02-27T06:08:34.842Z,-10.90
2018-02-27T06:11:03.516Z,-10.90
2018-02-27T06:13:31.769Z,-11.00
2018-02-27T06:16:00.174Z,-11.00
2018-02-27T06:18:28.839Z,-11.00
2018-02-27T06:20:58.566Z,-10.90
2018-02-27T06:23:27.279Z,-11.00
2018-02-27T06:25:56.231Z,-11.00
2018-02-27T06:28:24.965Z,-10.90
2018-02-27T06:30:54.032Z,-11.00
2018-02-27T06:33:22.981Z,-10.90
2018-02-27T06:35:52.103Z,-11.10
2018-02-27T06:38:20.762Z,-11.00
2018-02-27T06:40:49.751Z,-11.10
2018-02-27T06:43:18.751Z,-11.10
2018-02-27T06:45:47.745Z,-11.00
2018-02-27T06:48:16.495Z,-10.90
2018-02-27T06:50:45.767Z,-11.00
2018-02-27T06:53:14.813Z,-10.90
2018-02-27T06:55:43.782Z,-10.90
2018-02-27T06:58:13.731Z,-10.90
2018-02-27T07:00:42.908Z,-11.00
2018-02-27T07:03:12.693Z,-10.90
2018-02-27T07:05:41.452Z,-11.00
2018-02-27T07:08:10.014Z,-10.80
2018-02-27T07:10:38.925Z,-10.90
2018-02-27T07:13:09.307Z,-10.80
2018-02-27T07:15:39.236Z,-10.70
2018-02-27T07:18:08.499Z,-10.70
2018-02-27T07:20:38.506Z,-10.70
2018-02-27T07:23:07.802Z,-10.70
2018-02-27T07:25:36.884Z,-10.60
2018-02-27T07:28:07.578Z,-10.50
2018-02-27T07:30:36.661Z,-10.40
2018-02-27T07:33:06.769Z,-7.70
2018-02-27T07:35:36.465Z,-6.30
2018-02-27T07:38:05.108Z,-6.30
2018-02-27T07:40:34.586Z,-6.50
2018-02-27T07:43:03.763Z,-6.00
2018-02-27T07:45:32.799Z,-5.30
2018-02-27T07:48:02.124Z,-5.70
2018-02-27T07:50:33.156Z,-5.40
2018-02-27T07:53:01.646Z,-5.40
2018-02-27T07:55:30.545Z,-5.70
2018-02-27T07:57:59.377Z,-5.50
2018-02-27T08:00:28.494Z,-6.60
2018-02-27T08:02:57.607Z,-5.50
2018-02-27T08:05:27.643Z,-4.70
2018-02-27T08:07:57.477Z,-5.20
2018-02-27T08:10:27.418Z,-4.30
2018-02-27T08:12:56.367Z,-4.20
2018-02-27T08:15:26.689Z,-4.90
2018-02-27T08:17:55.624Z,-4.90
2018-02-27T08:20:25.762Z,-4.30
2018-02-27T08:22:55.971Z,-4.40
2018-02-27T08:25:27.297Z,-4.50
2018-02-27T08:27:56.946Z,-4.40
2018-02-27T08:30:26.072Z,-4.50
2018-02-27T08:32:55.108Z,-4.20
2018-02-27T08:35:24.951Z,-4.20
2018-02-27T08:37:54.376Z,-4.20
2018-02-27T08:40:23.320Z,-2.80
2018-02-27T08:42:53.119Z,-4.30
2018-02-27T08:45:22.555Z,-5.30
2018-02-27T08:47:51.416Z,-5.00
2018-02-27T08:50:21.621Z,-4.30
2018-02-27T08:52:51.505Z,-3.70
2018-02-27T08:55:20.201Z,-4.40
2018-02-27T08:57:49.740Z,-5.00
2018-02-27T09:00:20.165Z,-5.10
2018-02-27T09:02:50.419Z,-3.90
2018-02-27T09:05:20.482Z,-3.10
2018-02-27T09:07:51.650Z,-2.70
2018-02-27T09:10:22.057Z,-2.80
2018-02-27T09:12:52.554Z,-4.00
2018-02-27T09:15:22.705Z,-5.80
2018-02-27T09:17:53.493Z,-7.00
2018-02-27T09:20:23.953Z,-7.50
2018-02-27T09:22:53.733Z,-7.70
2018-02-27T09:25:23.247Z,-7.60
2018-02-27T09:27:52.374Z,-7.60
2018-02-27T09:30:23.008Z,-8.00
2018-02-27T09:32:52.793Z,-7.60
2018-02-27T09:35:21.560Z,-7.70
2018-02-27T09:37:51.325Z,-7.70
2018-02-27T09:40:20.163Z,-7.70
2018-02-27T09:42:49.144Z,-7.90
2018-02-27T09:45:18.044Z,-8.00
2018-02-27T09:47:47.080Z,-7.70
2018-02-27T09:50:16.489Z,-7.60
2018-02-27T09:52:46.097Z,-7.70
2018-02-27T09:55:15.611Z,-7.70
2018-02-27T09:57:44.766Z,-7.50
2018-02-27T10:00:14.823Z,-7.70
2018-02-27T10:02:43.731Z,-7.50
2018-02-27T10:05:12.749Z,-7.50
2018-02-27T10:07:41.484Z,-7.20
2018-02-27T10:10:12.928Z,-7.20
2018-02-27T10:12:43.398Z,-7.50
2018-02-27T10:15:12.909Z,-7.60
2018-02-27T10:17:44.013Z,-7.20
2018-02-27T10:20:13.891Z,-7.10
2018-02-27T10:22:42.713Z,-7.10
2018-02-27T10:25:11.610Z,-7.10
2018-02-27T10:27:40.752Z,-7.00
2018-02-27T10:30:10.054Z,-6.90
2018-02-27T10:32:39.966Z,-7.00
2018-02-27T10:35:08.723Z,-6.80
2018-02-27T10:37:38.214Z,-6.70
2018-02-27T10:40:07.497Z,-6.80
2018-02-27T10:42:37.775Z,-6.50
2018-02-27T10:45:07.905Z,-6.50
2018-02-27T10:47:38.066Z,-6.50
2018-02-27T10:50:07.213Z,-6.50
2018-02-27T10:52:36.035Z,-6.30
2018-02-27T10:55:05.253Z,-6.20
2018-02-27T10:57:34.259Z,-6.10
2018-02-27T11:00:04.111Z,-5.80
2018-02-27T11:02:33.030Z,-5.90
2018-02-27T11:05:02.616Z,-6.10
2018-02-27T11:07:31.314Z,-6.20
2018-02-27T11:10:01.019Z,-5.70
2018-02-27T11:12:30.674Z,-5.60
2018-02-27T11:14:59.914Z,-5.60
2018-02-27T11:17:28.811Z,-5.40
2018-02-27T11:19:57.807Z,-5.70
2018-02-27T11:22:26.872Z,-5.70
2018-02-27T11:24:55.729Z,-5.70
2018-02-27T11:27:24.792Z,-5.60
2018-02-27T11:29:54.569Z,-5.50
2018-02-27T11:32:23.227Z,-5.50
2018-02-27T11:34:52.034Z,-5.60
2018-02-27T11:37:20.844Z,-5.40
2018-02-27T11:39:49.950Z,-5.20
2018-02-27T11:42:18.885Z,-5.20
2018-02-27T11:44:47.744Z,-5.40
2018-02-27T11:47:17.549Z,-5.50
2018-02-27T11:49:47.732Z,-5.00
2018-02-27T11:52:16.656Z,-5.10
2018-02-27T11:54:46.623Z,-5.10
2018-02-27T11:57:15.405Z,-5.10
2018-02-27T11:59:44.250Z,-5.00
2018-02-27T12:02:13.820Z,-4.70
2018-02-27T12:04:43.102Z,-4.70
2018-02-27T12:07:11.857Z,-4.80
2018-02-27T12:09:41.489Z,-4.80
2018-02-27T12:12:10.360Z,-4.80
2018-02-27T12:14:40.237Z,-4.80
2018-02-27T12:17:09.851Z,-4.40
2018-02-27T12:19:39.466Z,-4.50
2018-02-27T12:22:09.036Z,-4.70
2018-02-27T12:24:38.315Z,-4.70
2018-02-27T12:27:07.262Z,-4.50
2018-02-27T12:29:36.313Z,-4.10
2018-02-27T12:32:04.988Z,-4.10
2018-02-27T12:34:33.932Z,-4.30
2018-02-27T12:37:03.597Z,-4.00
2018-02-27T12:39:32.514Z,-4.10
2018-02-27T12:42:02.073Z,-3.90
2018-02-27T12:44:32.133Z,-3.80
2018-02-27T12:47:01.631Z,-3.70
2018-02-27T12:49:30.529Z,-3.80
2018-02-27T12:51:59.268Z,-4.30
2018-02-27T12:54:27.897Z,-4.40
2018-02-27T12:56:56.680Z,-4.20
2018-02-27T12:59:25.521Z,-3.90
2018-02-27T13:01:54.238Z,-3.70
2018-02-27T13:04:23.082Z,-3.60
2018-02-27T13:06:53.052Z,-3.50
2018-02-27T13:09:21.732Z,-3.50
2018-02-27T13:11:50.696Z,-3.70
2018-02-27T13:14:19.502Z,-3.80
2018-02-27T13:16:48.438Z,-3.90
2018-02-27T13:19:17.283Z,-3.90
2018-02-27T13:21:46.178Z,-3.80
2018-02-27T13:24:14.961Z,-4.10
2018-02-27T13:26:43.685Z,-4.30
2018-02-27T13:29:12.898Z,-4.30
2018-02-27T13:31:42.389Z,-4.10
2018-02-27T13:34:11.274Z,-4.20
2018-02-27T13:36:40.014Z,-4.20
2018-02-27T13:39:09.489Z,-4.00
2018-02-27T13:41:38.975Z,-3.80
2018-02-27T13:44:07.839Z,-3.80
2018-02-27T13:46:36.549Z,-3.90
2018-02-27T13:49:05.425Z,-3.80
2018-02-27T13:51:34.022Z,-4.10
2018-02-27T13:54:03.342Z,-3.80
2018-02-27T13:56:33.336Z,-3.90
2018-02-27T13:59:02.810Z,-3.90
2018-02-27T14:01:31.513Z,-3.90
2018-02-27T14:04:01.038Z,-3.70
2018-02-27T14:06:30.334Z,-4.10
2018-02-27T14:09:00.231Z,-4.20
2018-02-27T14:11:29.173Z,-4.20
2018-02-27T14:13:57.941Z,-3.90
2018-02-27T14:16:27.718Z,-4.10
2018-02-27T14:18:59.093Z,-4.10
2018-02-27T14:21:28.923Z,-4.10
2018-02-27T14:23:58.377Z,-4.30
2018-02-27T14:26:28.146Z,-4.30
2018-02-27T14:28:56.957Z,-4.30
2018-02-27T14:31:25.581Z,-4.40
2018-02-27T14:33:54.485Z,-4.60
2018-02-27T14:36:23.930Z,-4.40
2018-02-27T14:38:52.561Z,-4.40
2018-02-27T14:41:21.310Z,-4.60
2018-02-27T14:43:50.197Z,-4.50
2018-02-27T14:46:19.039Z,-4.60
2018-02-27T14:48:48.422Z,-4.40
2018-02-27T14:51:17.333Z,-4.50
2018-02-27T14:53:45.947Z,-4.50
2018-02-27T14:56:15.237Z,-4.40
2018-02-27T14:58:44.092Z,-4.30
2018-02-27T15:01:13.955Z,-4.70
2018-02-27T15:03:42.712Z,-4.70
2018-02-27T15:06:12.269Z,-4.70
2018-02-27T15:08:41.827Z,-4.70
2018-02-27T15:11:11.029Z,-4.50
2018-02-27T15:13:39.764Z,-4.50
2018-02-27T15:16:08.893Z,-4.60
2018-02-27T15:18:38.156Z,-4.60
2018-02-27T15:21:07.765Z,-4.50
2018-02-27T15:23:36.772Z,-4.80
2018-02-27T15:26:05.533Z,-4.80
2018-02-27T15:28:34.577Z,-4.70
2018-02-27T15:31:03.213Z,-4.60
2018-02-27T15:33:32.253Z,-4.70
2018-02-27T15:36:01.675Z,-4.70
2018-02-27T15:38:30.509Z,-4.70
2018-02-27T15:40:59.800Z,-4.90
2018-02-27T15:43:29.270Z,-4.90
2018-02-27T15:45:58.142Z,-4.90
2018-02-27T15:48:27.961Z,-4.90
2018-02-27T15:50:56.833Z,-4.90
2018-02-27T15:53:25.421Z,-4.80
2018-02-27T15:55:55.336Z,-4.80
2018-02-27T15:58:30.220Z,-4.70
2018-02-27T16:01:01.730Z,-4.80
2018-02-27T16:03:30.548Z,-4.80
2018-02-27T16:05:59.401Z,-4.80
2018-02-27T16:08:28.194Z,-4.90
2018-02-27T16:10:57.720Z,-4.80
2018-02-27T16:13:26.589Z,-4.80
2018-02-27T16:15:56.219Z,-4.80
2018-02-27T16:18:24.886Z,-5.00
2018-02-27T16:20:54.376Z,-5.00
2018-02-27T16:23:25.485Z,-5.00
2018-02-27T16:25:56.572Z,-5.00
2018-02-27T16:28:25.367Z,-5.00
2018-02-27T16:30:54.011Z,-5.10
2018-02-27T16:33:22.727Z,-5.10
2018-02-27T16:35:51.451Z,-5.10
2018-02-27T16:38:21.794Z,-5.10
2018-02-27T16:40:50.973Z,-5.00
2018-02-27T16:43:19.776Z,-5.10
2018-02-27T16:45:48.451Z,-5.20
2018-02-27T16:48:17.329Z,-5.30
2018-02-27T16:50:46.668Z,-5.20
2018-02-27T16:53:15.929Z,-5.40
2018-02-27T16:55:44.872Z,-5.30
2018-02-27T16:58:14.445Z,-5.40
2018-02-27T17:00:43.176Z,-5.40
2018-02-27T17:03:13.484Z,-5.40
2018-02-27T17:05:43.027Z,-5.40
2018-02-27T17:08:11.620Z,-5.40
2018-02-27T17:10:41.034Z,-5.50
2018-02-27T17:13:10.533Z,-5.50
2018-02-27T17:15:40.565Z,-5.50
2018-02-27T17:18:09.957Z,-5.50
2018-02-27T17:20:38.711Z,-5.50
2018-02-27T17:23:07.735Z,-5.60
2018-02-27T17:25:37.408Z,-5.50
2018-02-27T17:28:05.862Z,-5.60
2018-02-27T17:30:34.344Z,-5.60
2018-02-27T17:33:03.786Z,-5.70
2018-02-27T17:35:32.374Z,-5.70
2018-02-27T17:38:00.969Z,-5.80
2018-02-27T17:40:30.134Z,-5.80
2018-02-27T17:42:58.742Z,-5.80
2018-02-27T17:45:28.130Z,-5.90
2018-02-27T17:47:56.750Z,-5.90
2018-02-27T17:50:25.461Z,-5.90
2018-02-27T17:52:55.039Z,-5.80
2018-02-27T17:55:23.787Z,-5.90
2018-02-27T17:57:52.599Z,-5.90
2018-02-27T18:00:21.178Z,-6.00
2018-02-27T18:02:49.819Z,-6.00
2018-02-27T18:05:18.501Z,-6.10
2018-02-27T18:07:48.637Z,-6.00
2018-02-27T18:10:18.439Z,-6.00
2018-02-27T18:12:48.993Z,-6.00
2018-02-27T18:15:20.100Z,-6.00
2018-02-27T18:17:49.447Z,-6.00
2018-02-27T18:20:18.719Z,-6.10
2018-02-27T18:22:48.219Z,-6.10
2018-02-27T18:25:18.516Z,-6.20
2018-02-27T18:27:49.750Z,-6.20
2018-02-27T18:30:19.722Z,-6.20
2018-02-27T18:32:50.951Z,-6.30
2018-02-27T18:35:19.635Z,-6.30
2018-02-27T18:37:48.204Z,-6.20
2018-02-27T18:40:17.825Z,-6.30
2018-02-27T18:42:46.688Z,-6.30
2018-02-27T18:45:15.281Z,-6.30
2018-02-27T18:47:44.683Z,-6.30
2018-02-27T18:50:13.282Z,-6.30
2018-02-27T18:52:41.863Z,-6.40
2018-02-27T18:55:11.250Z,-6.50
2018-02-27T18:57:40.144Z,-6.50
2018-02-27T19:00:08.772Z,-6.40
2018-02-27T19:02:37.478Z,-6.50
2018-02-27T19:05:06.547Z,-6.50
2018-02-27T19:07:35.142Z,-6.70
2018-02-27T19:10:04.147Z,-6.60
2018-02-27T19:12:32.926Z,-6.70
2018-02-27T19:15:01.872Z,-6.70
2018-02-27T19:17:30.541Z,-6.70
2018-02-27T19:20:00.464Z,-6.60
2018-02-27T19:22:29.387Z,-6.60
2018-02-27T19:24:58.191Z,-6.60
2018-02-27T19:27:26.937Z,-6.70
2018-02-27T19:29:56.886Z,-6.70
2018-02-27T19:32:25.849Z,-6.70
2018-02-27T19:34:54.895Z,-7.00
2018-02-27T19:37:24.390Z,-6.90
2018-02-27T19:39:53.189Z,-6.80
2018-02-27T19:42:21.826Z,-6.80
2018-02-27T19:44:50.746Z,-6.90
2018-02-27T19:47:19.441Z,-6.90
2018-02-27T19:49:48.001Z,-6.90
2018-02-27T19:52:16.546Z,-6.90
2018-02-27T19:54:45.351Z,-6.90
2018-02-27T19:57:13.968Z,-6.90
2018-02-27T19:59:42.610Z,-6.90
2018-02-27T20:02:11.902Z,-6.90
2018-02-27T20:04:41.260Z,-7.10
2018-02-27T20:07:10.116Z,-7.00
2018-02-27T20:09:40.768Z,-7.00
2018-02-27T20:12:09.919Z,-7.10
2018-02-27T20:14:39.199Z,-7.10
2018-02-27T20:17:08.088Z,-7.10
2018-02-27T20:19:36.844Z,-7.10
2018-02-27T20:22:05.797Z,-7.30
2018-02-27T20:24:35.287Z,-7.20
2018-02-27T20:27:03.850Z,-7.20
2018-02-27T20:29:32.528Z,-7.20
2018-02-27T20:32:01.025Z,-7.20
2018-02-27T20:34:32.538Z,-7.20
2018-02-27T20:37:01.106Z,-7.20
2018-02-27T20:39:31.540Z,-7.30
2018-02-27T20:42:00.513Z,-7.40
2018-02-27T20:44:28.995Z,-7.30
2018-02-27T20:46:57.693Z,-7.20
2018-02-27T20:49:26.325Z,-7.30
2018-02-27T20:51:55.059Z,-7.30
2018-02-27T20:54:23.598Z,-7.40
2018-02-27T20:56:52.421Z,-7.30
2018-02-27T20:59:21.024Z,-7.40
2018-02-27T21:01:49.857Z,-7.40
2018-02-27T21:04:19.283Z,-7.40
2018-02-27T21:06:48.641Z,-7.40
2018-02-27T21:09:18.481Z,-7.50
2018-02-27T21:11:48.131Z,-7.50
2018-02-27T21:14:17.450Z,-7.50
2018-02-27T21:16:46.958Z,-7.50
2018-02-27T21:19:15.607Z,-7.50
2018-02-27T21:21:44.583Z,-7.60
2018-02-27T21:24:13.993Z,-7.60
2018-02-27T21:26:42.699Z,-7.60
2018-02-27T21:29:12.058Z,-7.60
2018-02-27T21:31:41.617Z,-7.60
2018-02-27T21:34:11.005Z,-7.60
2018-02-27T21:36:40.494Z,-7.80
2018-02-27T21:39:10.064Z,-7.80
2018-02-27T21:41:39.756Z,-7.60
2018-02-27T21:44:08.453Z,-7.70
2018-02-27T21:46:37.401Z,-7.70
2018-02-27T21:49:06.074Z,-7.70
2018-02-27T21:51:35.095Z,-7.60
2018-02-27T21:54:03.957Z,-7.60
2018-02-27T21:56:32.911Z,-7.60
2018-02-27T21:59:02.352Z,-7.50
2018-02-27T22:01:31.313Z,-7.70
2018-02-27T22:04:00.912Z,-7.70
2018-02-27T22:06:30.508Z,-7.70
2018-02-27T22:09:00.141Z,-7.70
2018-02-27T22:11:28.938Z,-7.70
2018-02-27T22:13:57.642Z,-7.70
2018-02-27T22:16:27.194Z,-7.80
2018-02-27T22:18:56.122Z,-7.80
2018-02-27T22:21:25.612Z,-7.90
2018-02-27T22:23:54.476Z,-7.90
2018-02-27T22:26:23.408Z,-7.90
2018-02-27T22:28:52.105Z,-7.80
2018-02-27T22:31:21.482Z,-7.90
2018-02-27T22:33:51.135Z,-7.90
2018-02-27T22:36:21.225Z,-7.90
2018-02-27T22:38:50.599Z,-7.90
2018-02-27T22:41:19.721Z,-8.00
2018-02-27T22:43:48.589Z,-8.00
2018-02-27T22:46:19.324Z,-8.00
2018-02-27T22:48:48.850Z,-8.10
2018-02-27T22:51:18.229Z,-8.10
2018-02-27T22:53:47.878Z,-8.10
2018-02-27T22:56:17.550Z,-8.20
2018-02-27T22:58:46.658Z,-8.20
2018-02-27T23:01:15.599Z,-8.20
2018-02-27T23:03:44.556Z,-8.20
2018-02-27T23:06:13.449Z,-8.20
2018-02-27T23:08:42.224Z,-8.20
2018-02-27T23:11:10.867Z,-8.20
2018-02-27T23:13:41.984Z,-8.20
2018-02-27T23:16:11.421Z,-8.20
2018-02-27T23:18:40.764Z,-8.20
2018-02-27T23:21:10.093Z,-8.20
2018-02-27T23:23:40.031Z,-8.30
2018-02-27T23:26:24.103Z,-8.30
2018-02-27T23:28:57.887Z,-8.40
2018-02-27T23:31:31.743Z,-8.40
2018-02-27T23:34:27.750Z,-8.40
2018-02-27T23:36:57.396Z,-8.40
2018-02-27T23:39:26.347Z,-8.40
2018-02-27T23:41:55.315Z,-8.40
2018-02-27T23:44:25.116Z,-8.40
2018-02-27T23:46:54.102Z,-8.40
2018-02-27T23:49:24.682Z,-8.40
2018-02-27T23:51:54.278Z,-8.50
2018-02-27T23:54:23.165Z,-8.50
2018-02-27T23:56:52.242Z,-8.50
2018-02-27T23:59:22.066Z,-8.50
